createdAt,value
2023-02-23T00:00:55.107Z,60.69
2023-02-23T00:03:40.524Z,61.02
2023-02-23T00:06:27.785Z,60.85
2023-02-23T00:09:22.445Z,61.06
2023-02-23T00:12:07.469Z,60.75
2023-02-23T00:14:52.959Z,61.06
2023-02-23T00:17:40.246Z,60.88
2023-02-23T00:20:27.056Z,60.94
2023-02-23T00:23:12.363Z,61.32
2023-02-23T00:25:58.779Z,61.59
2023-02-23T00:28:43.808Z,61.51
2023-02-23T00:31:29.516Z,61.35
2023-02-23T00:34:20.249Z,61.70
2023-02-23T00:37:08.130Z,61.71
2023-02-23T00:39:55.985Z,61.93
2023-02-23T00:42:44.609Z,61.83
2023-02-23T00:45:29.906Z,61.83
2023-02-23T00:48:15.415Z,62.14
2023-02-23T00:51:02.692Z,62.25
2023-02-23T00:53:47.643Z,62.70
2023-02-23T00:56:32.764Z,62.83
2023-02-23T00:59:18.918Z,63.17
2023-02-23T01:02:04.012Z,63.12
2023-02-23T01:04:49.560Z,62.86
2023-02-23T01:07:34.914Z,62.82
2023-02-23T01:10:20.266Z,63.25
2023-02-23T01:13:05.866Z,63.19
2023-02-23T01:15:51.638Z,63.10
2023-02-23T01:18:39.407Z,63.12
2023-02-23T01:21:30.985Z,63.16
2023-02-23T01:24:16.154Z,63.52
2023-02-23T01:27:02.526Z,63.76
2023-02-23T01:29:47.646Z,63.92
2023-02-23T01:32:37.279Z,63.95
2023-02-23T01:35:22.858Z,64.01
2023-02-23T01:38:09.413Z,64.25
2023-02-23T01:40:54.454Z,64.23
2023-02-23T01:43:54.816Z,64.02
2023-02-23T01:46:45.545Z,64.63
2023-02-23T01:49:33.871Z,64.92
2023-02-23T01:52:19.074Z,64.76
2023-02-23T01:55:05.645Z,65.00
2023-02-23T01:57:55.501Z,64.97
2023-02-23T02:00:45.916Z,65.21
2023-02-23T02:03:54.958Z,65.31
2023-02-23T02:06:40.560Z,65.80
2023-02-23T02:09:27.594Z,65.88
2023-02-23T02:12:14.194Z,66.00
2023-02-23T02:15:00.072Z,66.56
2023-02-23T02:18:08.632Z,66.88
2023-02-23T02:21:34.494Z,67.44
2023-02-23T02:24:31.828Z,67.96
2023-02-23T02:27:36.556Z,68.08
2023-02-23T02:30:55.948Z,68.46
2023-02-23T02:34:00.189Z,68.95
2023-02-23T02:37:10.675Z,68.86
2023-02-23T02:40:16.076Z,69.10
2023-02-23T02:43:14.280Z,69.65
2023-02-23T02:46:18.990Z,69.85
2023-02-23T02:49:26.054Z,70.15
2023-02-23T02:52:20.036Z,70.77
2023-02-23T02:55:22.998Z,70.83
2023-02-23T02:58:10.738Z,71.11
2023-02-23T03:01:23.296Z,71.21
2023-02-23T03:04:40.491Z,71.49
2023-02-23T03:07:47.252Z,71.95
2023-02-23T03:11:21.941Z,72.03
2023-02-23T03:14:40.837Z,72.45
2023-02-23T03:18:01.135Z,72.94
2023-02-23T03:21:10.560Z,73.06
2023-02-23T03:24:36.262Z,73.72
2023-02-23T03:28:02.470Z,74.64
2023-02-23T03:31:05.990Z,75.26
2023-02-23T03:34:40.873Z,75.57
2023-02-23T03:38:11.823Z,75.71
2023-02-23T03:41:18.558Z,76.18
2023-02-23T03:44:29.245Z,76.24
2023-02-23T03:47:35.151Z,76.21
2023-02-23T03:50:49.761Z,76.47
2023-02-23T03:54:03.228Z,76.83
2023-02-23T03:57:11.152Z,77.27
2023-02-23T04:00:21.481Z,77.38
2023-02-23T04:03:27.913Z,77.28
2023-02-23T04:06:35.545Z,77.01
2023-02-23T04:09:39.006Z,77.05
2023-02-23T04:12:49.085Z,76.91
2023-02-23T04:15:41.280Z,76.62
2023-02-23T04:18:30.030Z,76.46
2023-02-23T04:21:15.280Z,76.29
2023-02-23T04:24:00.352Z,76.16
2023-02-23T04:26:45.734Z,76.01
2023-02-23T04:29:30.853Z,75.79
2023-02-23T04:32:20.333Z,75.90
2023-02-23T04:35:06.176Z,76.29
2023-02-23T04:37:51.415Z,76.62
2023-02-23T04:40:36.775Z,76.76
2023-02-23T04:43:21.889Z,77.24
2023-02-23T04:46:07.803Z,77.60
2023-02-23T04:48:52.914Z,77.23
2023-02-23T04:51:37.878Z,77.07
2023-02-23T04:54:23.384Z,77.35
2023-02-23T04:57:09.304Z,77.63
2023-02-23T04:59:54.672Z,78.08
2023-02-23T05:02:40.109Z,78.39
2023-02-23T05:05:25.619Z,78.37
2023-02-23T05:08:10.662Z,78.08
2023-02-23T05:10:56.190Z,77.77
2023-02-23T05:13:41.372Z,77.53
2023-02-23T05:16:27.313Z,77.38
2023-02-23T05:19:13.024Z,77.57
2023-02-23T05:21:58.215Z,77.56
2023-02-23T05:24:43.416Z,77.56
2023-02-23T05:27:28.814Z,77.48
2023-02-23T05:30:14.815Z,77.52
2023-02-23T05:33:00.337Z,77.84
2023-02-23T05:35:45.737Z,78.05
2023-02-23T05:38:30.814Z,77.83
2023-02-23T05:41:19.987Z,77.94
2023-02-23T05:44:05.093Z,78.41
2023-02-23T05:46:50.143Z,78.47
2023-02-23T05:49:35.644Z,78.76
2023-02-23T05:52:20.822Z,78.43
2023-02-23T05:55:07.015Z,78.84
2023-02-23T05:57:52.224Z,78.31
2023-02-23T06:00:37.257Z,78.00
2023-02-23T06:03:23.160Z,77.41
2023-02-23T06:06:08.527Z,77.19
2023-02-23T06:08:53.935Z,76.80
2023-02-23T06:11:39.012Z,76.46
2023-02-23T06:14:24.504Z,76.41
2023-02-23T06:17:10.168Z,76.57
2023-02-23T06:19:55.701Z,76.36
2023-02-23T06:22:41.677Z,75.56
2023-02-23T06:25:26.695Z,74.94
2023-02-23T06:28:12.668Z,75.18
2023-02-23T06:30:57.791Z,75.07
2023-02-23T06:33:43.351Z,74.77
2023-02-23T06:36:28.827Z,75.10
2023-02-23T06:39:13.857Z,75.06
2023-02-23T06:41:59.748Z,74.98
2023-02-23T06:44:44.691Z,74.52
2023-02-23T06:47:30.198Z,73.85
2023-02-23T06:50:15.874Z,73.81
2023-02-23T06:53:01.156Z,73.32
2023-02-23T06:55:46.285Z,73.29
2023-02-23T06:58:31.497Z,73.68
2023-02-23T07:01:21.093Z,73.00
2023-02-23T07:04:06.291Z,73.12
2023-02-23T07:06:51.865Z,73.03
2023-02-23T07:09:39.582Z,72.46
2023-02-23T07:12:24.615Z,71.88
2023-02-23T07:15:11.047Z,71.55
2023-02-23T07:17:56.887Z,70.05
2023-02-23T07:20:41.773Z,69.59
2023-02-23T07:23:28.004Z,69.28
2023-02-23T07:26:15.153Z,69.64
2023-02-23T07:29:00.969Z,69.86
2023-02-23T07:31:46.228Z,69.76
2023-02-23T07:34:31.773Z,69.78
2023-02-23T07:37:16.848Z,70.27
2023-02-23T07:40:02.657Z,69.90
2023-02-23T07:42:47.656Z,69.42
2023-02-23T07:45:32.777Z,68.52
2023-02-23T07:48:19.786Z,67.81
2023-02-23T07:51:11.344Z,68.08
2023-02-23T07:53:56.782Z,68.05
2023-02-23T07:56:42.089Z,67.99
2023-02-23T07:59:27.713Z,67.37
2023-02-23T08:02:13.390Z,66.60
2023-02-23T08:04:58.872Z,66.69
2023-02-23T08:07:43.955Z,66.90
2023-02-23T08:10:29.300Z,66.17
2023-02-23T08:13:16.404Z,66.09
2023-02-23T08:16:02.200Z,65.43
2023-02-23T08:18:47.729Z,63.51
2023-02-23T08:21:32.932Z,64.17
2023-02-23T08:24:18.413Z,64.32
2023-02-23T08:27:03.942Z,64.69
2023-02-23T08:29:52.055Z,65.48
2023-02-23T08:32:36.970Z,64.99
2023-02-23T08:35:22.605Z,63.80
2023-02-23T08:38:08.069Z,63.15
2023-02-23T08:40:54.505Z,62.41
2023-02-23T08:43:39.928Z,61.92
2023-02-23T08:46:25.145Z,62.17
2023-02-23T08:49:10.787Z,61.27
2023-02-23T08:51:56.037Z,60.11
2023-02-23T08:54:41.654Z,60.75
2023-02-23T08:57:26.812Z,58.78
2023-02-23T09:00:16.077Z,58.13
2023-02-23T09:03:01.695Z,57.92
2023-02-23T09:05:47.309Z,57.63
2023-02-23T09:08:32.967Z,57.03
2023-02-23T09:11:18.725Z,57.13
2023-02-23T09:14:04.429Z,58.35
2023-02-23T09:16:49.635Z,59.12
2023-02-23T09:19:34.690Z,58.95
2023-02-23T09:22:19.901Z,58.92
2023-02-23T09:25:08.006Z,57.76
2023-02-23T09:27:56.314Z,56.80
2023-02-23T09:30:43.400Z,57.21
2023-02-23T09:33:28.772Z,56.30
2023-02-23T09:36:32.332Z,54.90
2023-02-23T09:39:21.992Z,53.40
2023-02-23T09:42:29.144Z,52.10
2023-02-23T09:45:28.948Z,51.09
2023-02-23T09:48:15.923Z,51.00
2023-02-23T09:51:05.303Z,49.87
2023-02-23T09:53:53.818Z,50.02
2023-02-23T09:56:41.163Z,50.03
2023-02-23T09:59:28.162Z,50.93
2023-02-23T10:02:13.962Z,52.38
2023-02-23T10:05:03.097Z,53.16
2023-02-23T10:07:58.770Z,52.83
2023-02-23T10:10:48.603Z,52.83
2023-02-23T10:13:55.576Z,52.86
2023-02-23T10:16:46.623Z,54.44
2023-02-23T10:19:40.991Z,53.12
2023-02-23T10:22:28.439Z,52.50
2023-02-23T10:25:25.494Z,51.14
2023-02-23T10:28:21.057Z,50.55
2023-02-23T10:31:25.749Z,49.79
2023-02-23T10:34:16.232Z,48.38
2023-02-23T10:37:05.350Z,47.94
2023-02-23T10:39:51.884Z,49.38
2023-02-23T10:42:37.304Z,48.05
2023-02-23T10:45:25.699Z,47.50
2023-02-23T10:48:28.787Z,46.71
2023-02-23T10:51:29.574Z,46.60
2023-02-23T10:54:38.375Z,46.35
2023-02-23T10:57:30.241Z,45.09
2023-02-23T11:00:15.986Z,43.94
2023-02-23T11:03:03.668Z,44.57
2023-02-23T11:05:52.013Z,43.70
2023-02-23T11:08:38.896Z,42.73
2023-02-23T11:11:27.914Z,41.76
2023-02-23T11:14:16.239Z,42.44
2023-02-23T11:17:02.102Z,41.88
2023-02-23T11:19:47.493Z,42.73
2023-02-23T11:22:37.007Z,41.91
2023-02-23T11:25:29.104Z,43.08
2023-02-23T11:28:21.949Z,44.62
2023-02-23T11:31:17.163Z,44.52
2023-02-23T11:34:04.460Z,44.41
2023-02-23T11:37:06.355Z,44.39
2023-02-23T11:39:51.515Z,46.11
2023-02-23T11:42:36.587Z,47.03
2023-02-23T11:45:28.174Z,48.03
2023-02-23T11:48:26.549Z,49.84
2023-02-23T11:51:28.182Z,50.05
2023-02-23T11:54:40.073Z,49.55
2023-02-23T11:57:34.343Z,50.50
2023-02-23T12:00:29.957Z,50.45
2023-02-23T12:03:21.940Z,50.08
2023-02-23T12:06:07.146Z,49.36
2023-02-23T12:08:57.035Z,48.43
2023-02-23T12:11:49.172Z,49.15
2023-02-23T12:14:43.037Z,49.44
2023-02-23T12:17:37.976Z,50.63
2023-02-23T12:20:31.201Z,50.84
2023-02-23T12:23:29.357Z,51.46
2023-02-23T12:26:20.817Z,51.01
2023-02-23T12:29:29.730Z,50.37
2023-02-23T12:32:19.591Z,50.96
2023-02-23T12:35:13.527Z,51.22
2023-02-23T12:38:01.954Z,51.90
2023-02-23T12:40:47.823Z,51.48
2023-02-23T12:43:42.560Z,51.78
2023-02-23T12:46:33.575Z,52.21
2023-02-23T12:49:34.909Z,52.49
2023-02-23T12:52:31.462Z,52.44
2023-02-23T12:55:24.160Z,52.45
2023-02-23T12:58:34.099Z,52.74
2023-02-23T13:01:54.188Z,52.80
2023-02-23T13:05:03.984Z,53.05
2023-02-23T13:08:13.733Z,52.44
2023-02-23T13:11:11.290Z,53.14
2023-02-23T13:14:12.844Z,53.50
2023-02-23T13:17:17.474Z,53.82
2023-02-23T13:20:12.271Z,54.45
2023-02-23T13:22:57.192Z,54.87
2023-02-23T13:26:33.048Z,54.47
2023-02-23T13:29:36.722Z,54.20
2023-02-23T13:32:25.901Z,54.35
2023-02-23T13:35:20.171Z,54.69
2023-02-23T13:38:36.349Z,55.04
2023-02-23T13:42:39.264Z,55.12
2023-02-23T13:45:51.146Z,54.86
2023-02-23T13:48:57.564Z,55.01
2023-02-23T13:51:51.598Z,54.68
2023-02-23T13:54:36.940Z,54.72
2023-02-23T13:57:24.168Z,53.93
2023-02-23T14:00:29.848Z,53.69
2023-02-23T14:03:29.585Z,52.99
2023-02-23T14:06:17.848Z,53.46
2023-02-23T14:09:10.116Z,53.59
2023-02-23T14:16:24.629Z,53.25
2023-02-23T14:19:36.437Z,53.19
2023-02-23T14:22:21.938Z,54.00
2023-02-23T14:25:32.565Z,54.42
2023-02-23T14:28:34.887Z,54.18
2023-02-23T14:31:22.323Z,53.65
2023-02-23T14:34:12.493Z,54.09
2023-02-23T14:37:14.386Z,53.83
2023-02-23T14:40:05.093Z,53.69
2023-02-23T14:42:56.398Z,53.66
2023-02-23T14:45:41.854Z,54.38
2023-02-23T14:48:27.030Z,54.91
2023-02-23T14:51:24.158Z,55.37
2023-02-23T14:54:15.043Z,56.40
2023-02-23T14:57:03.386Z,57.06
2023-02-23T14:59:58.207Z,57.42
2023-02-23T15:02:59.466Z,57.16
2023-02-23T15:05:53.480Z,56.79
2023-02-23T15:08:44.252Z,57.33
2023-02-23T15:11:31.075Z,57.77
2023-02-23T15:14:27.680Z,58.00
2023-02-23T15:17:20.028Z,58.72
2023-02-23T15:20:17.411Z,58.97
2023-02-23T15:23:05.039Z,59.48
2023-02-23T15:25:51.400Z,60.09
2023-02-23T15:28:39.675Z,60.32
2023-02-23T15:31:29.595Z,60.77
2023-02-23T15:34:19.551Z,60.93
2023-02-23T15:37:10.852Z,61.38
2023-02-23T15:40:05.445Z,61.68
2023-02-23T15:42:54.269Z,61.95
2023-02-23T15:45:48.944Z,62.26
2023-02-23T15:48:55.091Z,62.23
2023-02-23T15:51:48.052Z,62.44
2023-02-23T15:55:00.921Z,63.09
2023-02-23T15:57:54.397Z,63.66
2023-02-23T16:00:50.584Z,64.02
2023-02-23T16:03:43.562Z,63.88
2023-02-23T16:06:37.695Z,64.55
2023-02-23T16:09:27.197Z,64.76
2023-02-23T16:12:17.421Z,64.90
2023-02-23T16:15:06.467Z,65.27
2023-02-23T16:17:59.276Z,65.23
2023-02-23T16:22:01.068Z,65.88
2023-02-23T16:24:55.358Z,66.23
2023-02-23T16:27:42.927Z,66.60
2023-02-23T16:33:23.984Z,66.88
2023-02-23T16:36:10.722Z,67.68
2023-02-23T16:39:03.540Z,67.64
2023-02-23T16:41:51.165Z,67.78
2023-02-23T16:44:43.844Z,67.69
2023-02-23T16:47:38.173Z,67.80
2023-02-23T16:50:26.239Z,67.88
2023-02-23T16:53:13.235Z,68.13
2023-02-23T16:56:12.439Z,68.15
2023-02-23T16:59:03.091Z,68.50
2023-02-23T17:01:50.798Z,68.52
2023-02-23T17:04:37.217Z,68.57
2023-02-23T17:07:24.275Z,69.01
2023-02-23T17:10:28.335Z,69.20
2023-02-23T17:13:24.136Z,69.59
2023-02-23T17:16:13.633Z,69.65
2023-02-23T17:19:02.286Z,69.81
2023-02-23T17:21:49.617Z,70.01
2023-02-23T17:24:36.168Z,70.27
2023-02-23T17:27:22.929Z,70.53
2023-02-23T17:30:10.257Z,70.21
2023-02-23T17:32:59.027Z,70.84
2023-02-23T17:35:46.127Z,70.78
2023-02-23T17:38:35.386Z,70.59
2023-02-23T17:41:25.498Z,71.14
2023-02-23T17:44:12.470Z,71.04
2023-02-23T17:46:58.939Z,71.14
2023-02-23T17:49:45.790Z,71.37
2023-02-23T17:52:32.434Z,71.68
2023-02-23T17:55:21.152Z,71.75
2023-02-23T17:58:07.940Z,71.81
2023-02-23T18:00:56.785Z,71.85
2023-02-23T18:03:43.742Z,72.09
2023-02-23T18:06:30.680Z,72.34
2023-02-23T18:09:17.093Z,72.61
2023-02-23T18:12:04.408Z,72.70
2023-02-23T18:14:51.296Z,72.66
2023-02-23T18:17:38.202Z,72.64
2023-02-23T18:20:24.919Z,72.63
2023-02-23T18:23:11.432Z,72.98
2023-02-23T18:26:10.154Z,72.96
2023-02-23T18:28:57.030Z,73.14
2023-02-23T18:31:43.669Z,73.29
2023-02-23T18:34:31.099Z,73.35
2023-02-23T18:37:25.079Z,73.10
2023-02-23T18:40:21.280Z,73.28
2023-02-23T18:43:08.672Z,73.54
2023-02-23T18:45:56.054Z,73.69
2023-02-23T18:48:43.687Z,73.88
2023-02-23T18:51:30.455Z,73.74
2023-02-23T18:54:18.633Z,74.31
2023-02-23T18:57:05.830Z,74.38
2023-02-23T18:59:52.202Z,74.37
2023-02-23T19:02:41.458Z,74.78
2023-02-23T19:05:28.310Z,74.85
2023-02-23T19:08:16.333Z,74.88
2023-02-23T19:11:04.722Z,75.06
2023-02-23T19:13:56.112Z,74.87
2023-02-23T19:16:44.004Z,75.13
2023-02-23T19:19:30.514Z,75.14
2023-02-23T19:22:17.037Z,75.29
2023-02-23T19:25:04.310Z,75.25
2023-02-23T19:27:51.166Z,75.57
2023-02-23T19:30:38.117Z,75.85
2023-02-23T19:33:25.336Z,75.94
2023-02-23T19:36:14.757Z,76.25
2023-02-23T19:39:11.045Z,76.13
2023-02-23T19:41:57.438Z,76.25
2023-02-23T19:54:26.250Z,77.50
2023-02-23T19:57:12.907Z,77.94
2023-02-23T19:59:59.595Z,77.56
2023-02-23T20:02:54.649Z,77.67
2023-02-23T20:05:42.169Z,77.67
2023-02-23T20:08:29.169Z,77.98
2023-02-23T20:11:16.065Z,78.00
2023-02-23T20:14:05.221Z,78.19
2023-02-23T20:16:51.850Z,78.23
2023-02-23T20:19:39.038Z,78.27
2023-02-23T20:22:25.848Z,78.47
2023-02-23T20:25:15.688Z,78.74
2023-02-23T20:28:07.978Z,79.13
2023-02-23T20:30:54.722Z,79.45
2023-02-23T20:33:41.663Z,79.01
2023-02-23T20:36:28.189Z,79.03
2023-02-23T20:39:16.796Z,79.11
2023-02-23T20:42:03.883Z,79.34
2023-02-23T20:44:50.607Z,79.76
2023-02-23T20:47:38.035Z,80.00
2023-02-23T20:50:28.686Z,79.75
2023-02-23T20:53:15.819Z,80.05
2023-02-23T20:56:05.733Z,80.39
2023-02-23T20:58:54.372Z,80.16
2023-02-23T21:01:42.492Z,80.71
2023-02-23T21:04:29.136Z,80.84
2023-02-23T21:07:16.191Z,81.33
2023-02-23T21:10:02.477Z,81.49
2023-02-23T21:12:49.139Z,81.41
2023-02-23T21:15:36.955Z,81.91
2023-02-23T21:18:23.468Z,81.85
2023-02-23T21:21:10.557Z,82.49
2023-02-23T21:23:57.089Z,82.83
2023-02-23T21:26:44.062Z,82.99
2023-02-23T21:29:30.162Z,83.19
2023-02-23T21:32:17.026Z,83.23
2023-02-23T21:35:03.709Z,83.23
2023-02-23T21:37:51.634Z,83.19
2023-02-23T21:40:42.230Z,82.98
2023-02-23T21:43:28.642Z,83.37
2023-02-23T21:46:16.988Z,83.34
2023-02-23T21:49:10.108Z,83.99
2023-02-23T21:51:57.880Z,84.41
2023-02-23T21:54:50.519Z,84.93
2023-02-23T21:57:36.878Z,85.29
2023-02-23T22:00:24.123Z,84.64
2023-02-23T22:03:10.781Z,84.34
2023-02-23T22:06:00.755Z,84.41
2023-02-23T22:08:51.417Z,84.73
2023-02-23T22:11:42.354Z,84.42
2023-02-23T22:14:28.909Z,84.21
2023-02-23T22:17:18.929Z,84.74
2023-02-23T22:20:07.398Z,84.78
2023-02-23T22:22:53.627Z,85.01
2023-02-23T22:25:40.399Z,85.05
2023-02-23T22:28:27.217Z,85.21
2023-02-23T22:31:14.663Z,85.14
2023-02-23T22:34:01.475Z,84.96
2023-02-23T22:36:48.670Z,85.10
2023-02-23T22:39:35.476Z,85.69
2023-02-23T22:42:24.381Z,85.24
2023-02-23T22:45:11.569Z,85.16
2023-02-23T22:48:01.641Z,85.26
2023-02-23T22:50:47.950Z,85.39
2023-02-23T22:53:35.883Z,85.72
2023-02-23T22:56:22.348Z,84.94
2023-02-23T22:59:10.793Z,84.80
2023-02-23T23:01:57.457Z,85.49
2023-02-23T23:04:44.086Z,85.29
2023-02-23T23:07:33.553Z,85.33
2023-02-23T23:10:19.940Z,85.95
2023-02-23T23:13:07.556Z,85.80
2023-02-23T23:15:57.704Z,86.28
2023-02-23T23:18:54.640Z,86.71
2023-02-23T23:21:42.974Z,87.29
2023-02-23T23:24:30.497Z,87.38
2023-02-23T23:27:19.766Z,87.40
2023-02-23T23:30:07.920Z,87.22
2023-02-23T23:32:55.123Z,86.02
2023-02-23T23:35:42.791Z,85.41
2023-02-23T23:38:32.107Z,85.94
2023-02-23T23:41:24.566Z,85.84
2023-02-23T23:44:13.365Z,85.97
2023-02-23T23:47:05.381Z,86.22
2023-02-23T23:49:53.591Z,86.11
2023-02-23T23:52:43.568Z,85.63
2023-02-23T23:55:31.605Z,86.34
2023-02-23T23:58:18.434Z,85.96
